High wind

Not for real navigation. The accuracy of this data is not assured See disclaimer for more information



ICAO NAME COUNTRY WIND Kt GUST Kt VIS m TEMP/DEW C BARO METAR
MMPR Puerto Vallarta / Lic Mexico 40 0 19200 25/22 29.87 MMPR 161250Z 040040KT 12SM BKN020 25/22 A2987 RMK 8/500 LWR CLDS/1QUAD
KMWN Mount Washington NH United States 34 0 9999 6/6 29.92 KMWN 161254Z 27034KT 0SM FG VV000 06/06 RMK
SCRM 29 0 1500 0/0 29.03 SCRM 161300Z 30029KT 1500 FZDZ OVC002 M00/M00 Q0983 NOSIG
OODQ 26 0 9000 34/25 29.47 OODQ 161250Z 20026KT 9000 FEW025 BKN250 34/25 Q0998 NOSIG
CWQK Race Rocks Automatic Weather R Canada 26 0 9999 12/11 29.92 CWQK 161300Z AUTO 28026KT 12/11 RMK AO1 PK WND 28032/1210 SLP172 T01210109 53007

Show more